Time;durP1;ratioP1;P1;durP2;ratioP2;P2;SDS_P1;SDS_P2;PMS_P1;PMS_P2;Temp;Humidity;BMP_temperature;BMP_pressure;BME280_temperature;BME280_humidity;BME280_pressure;Samples;Min_cycle;Max_cycle;Signal;HPM_P1;HPM_P2
2021/01/04 00:01:55;;;;;;;14.63;9.60;;;;;;;2.41;73.24;96569.70;1776941;79;21211;-48
2021/01/04 00:04:43;;;;;;;12.93;8.28;;;;;;;2.25;73.83;96575.84;1820981;77;21049;-47
2021/01/04 00:07:43;;;;;;;12.13;7.97;;;;;;;2.24;74.03;96578.03;1806101;79;21125;-48
2021/01/04 00:10:25;;;;;;;13.83;8.40;;;;;;;2.32;74.03;96581.13;1801949;79;21108;-48
2021/01/04 00:13:02;;;;;;;14.15;8.28;;;;;;;2.41;74.38;96580.40;1794724;79;21153;-48
2021/01/04 00:15:47;;;;;;;12.18;7.67;;;;;;;2.45;73.93;96585.34;1797554;79;21368;-47
2021/01/04 00:18:44;;;;;;;14.13;8.48;;;;;;;2.44;74.17;96588.80;1786367;79;21510;-48
2021/01/04 00:21:34;;;;;;;12.58;7.90;;;;;;;2.37;74.42;96591.20;1789844;78;21179;-48
2021/01/04 00:24:24;;;;;;;14.63;9.73;;;;;;;2.33;74.81;96586.63;1804908;78;21132;-47
2021/01/04 00:26:59;;;;;;;14.73;9.30;;;;;;;2.34;74.88;96587.48;1806146;79;21132;-48
2021/01/04 00:29:27;;;;;;;14.60;8.78;;;;;;;2.34;74.68;96594.70;1817640;77;21373;-47
2021/01/04 00:31:59;;;;;;;16.27;7.78;;;;;;;2.37;74.72;96593.77;1808266;77;21127;-47
2021/01/04 00:34:46;;;;;;;15.43;8.05;;;;;;;2.37;74.67;96595.05;1800630;78;21132;-49
2021/01/04 00:37:41;;;;;;;14.13;7.87;;;;;;;2.36;75.04;96585.23;1783263;78;21165;-48
2021/01/04 00:40:20;;;;;;;14.70;7.85;;;;;;;2.41;74.73;96593.20;1797796;79;21168;-47
2021/01/04 00:42:50;;;;;;;13.10;7.47;;;;;;;2.43;74.26;96592.69;1822071;77;22428;-47
2021/01/04 00:45:36;;;;;;;10.93;7.37;;;;;;;2.42;74.04;96587.17;1802977;78;21589;-47
2021/01/04 00:48:30;;;;;;;9.78;7.30;;;;;;;2.43;74.45;96584.55;1805979;78;21073;-47
2021/01/04 00:51:15;;;;;;;9.43;6.83;;;;;;;2.52;74.70;96579.55;1807670;78;21581;-47
2021/01/04 00:53:46;;;;;;;10.75;7.17;;;;;;;2.64;74.90;96582.89;1799686;78;21613;-47
2021/01/04 00:56:36;;;;;;;11.45;7.22;;;;;;;2.77;74.66;96588.38;1797881;78;22256;-47
2021/01/04 00:59:18;;;;;;;10.45;7.03;;;;;;;2.85;74.45;96582.95;1802533;78;21071;-47
2021/01/04 01:02:03;;;;;;;14.70;8.55;;;;;;;2.92;73.63;96583.91;1805278;78;21176;-47
2021/01/04 01:04:58;;;;;;;17.45;10.25;;;;;;;2.92;72.60;96572.84;1799300;78;22060;-46
2021/01/04 01:07:53;;;;;;;22.00;12.78;;;;;;;2.69;71.73;96565.61;1807321;78;21481;-47
2021/01/04 01:10:23;;;;;;;20.25;11.45;;;;;;;2.63;71.92;96568.86;1772049;78;21386;-47
2021/01/04 01:13:23;;;;;;;19.00;10.30;;;;;;;2.67;71.78;96560.17;1803735;78;21613;-47
2021/01/04 01:16:16;;;;;;;14.75;7.92;;;;;;;2.71;71.82;96573.23;1772417;78;21581;-47
2021/01/04 01:19:09;;;;;;;20.77;11.50;;;;;;;2.78;71.68;96590.05;1810968;79;21066;-47
2021/01/04 01:21:37;;;;;;;14.00;8.00;;;;;;;2.23;68.11;96587.87;1784935;78;21226;-49
2021/01/04 01:24:05;;;;;;;12.23;7.20;;;;;;;1.41;72.53;96610.39;1757111;81;21210;-47
2021/01/04 01:26:50;;;;;;;11.70;7.70;;;;;;;1.08;74.64;96608.89;1752160;81;21514;-48
2021/01/04 01:29:36;;;;;;;11.53;7.05;;;;;;;0.99;76.06;96603.27;1756784;81;21203;-46
2021/01/04 01:32:25;;;;;;;13.60;7.47;;;;;;;1.16;77.01;96593.31;1749934;81;21082;-47
2021/01/04 01:35:21;;;;;;;12.70;7.55;;;;;;;1.71;77.60;96579.09;1753626;81;21140;-48
2021/01/04 01:38:10;;;;;;;15.10;7.70;;;;;;;1.71;77.60;96579.09;1758589;81;21563;-47
2021/01/04 01:41:03;;;;;;;12.37;7.97;;;;;;;2.02;76.98;96573.71;1691490;81;21124;-48
2021/01/04 01:43:47;;;;;;;11.73;7.85;;;;;;;2.30;76.26;96575.25;1754745;81;21553;-47
2021/01/04 01:46:56;;;;;;;15.32;8.78;;;;;;;2.50;75.57;96575.76;1752838;81;21156;-47
2021/01/04 01:50:01;;;;;;;18.85;9.63;;;;;;;2.63;74.93;96581.25;1746620;81;21585;-49
2021/01/04 01:52:38;;;;;;;22.65;11.85;;;;;;;2.75;73.54;96577.36;1676333;84;21523;-48
2021/01/04 01:55:28;;;;;;;22.73;12.97;;;;;;;2.78;72.38;96572.12;1852984;76;24607;-47
2021/01/04 01:58:32;;;;;;;19.90;12.28;;;;;;;2.64;72.42;96572.64;1806956;78;21217;-48
2021/01/04 02:01:34;;;;;;;16.35;11.00;;;;;;;2.61;72.37;96570.66;1795789;79;21071;-47
2021/01/04 02:04:12;;;;;;;23.40;11.10;;;;;;;2.57;71.78;96564.83;1803928;78;21614;-47
2021/01/04 02:07:15;;;;;;;23.20;13.95;;;;;;;2.58;71.48;96560.07;1806985;78;21639;-48
2021/01/04 02:09:49;;;;;;;31.42;18.77;;;;;;;2.60;71.33;96557.45;1804257;78;21059;-48
2021/01/04 02:12:39;;;;;;;31.80;18.27;;;;;;;2.57;71.26;96541.31;1804522;78;21181;-49
2021/01/04 02:15:19;;;;;;;26.62;16.80;;;;;;;2.57;70.82;96541.31;1799165;79;23552;-47
2021/01/04 02:18:23;;;;;;;34.55;21.77;;;;;;;2.53;70.51;96531.24;1804356;79;21146;-47
2021/01/04 02:21:34;;;;;;;38.13;22.67;;;;;;;2.49;70.76;96524.13;1803343;78;21053;-47
2021/01/04 02:24:13;;;;;;;34.98;19.75;;;;;;;2.47;70.54;96518.25;1801015;78;21119;-47
2021/01/04 02:26:45;;;;;;;34.63;20.15;;;;;;;2.44;70.20;96509.40;1804667;78;21054;-48
2021/01/04 02:29:15;;;;;;;24.18;17.62;;;;;;;2.37;69.87;96526.73;1804411;79;21472;-47
2021/01/04 02:31:49;;;;;;;36.53;21.85;;;;;;;2.31;69.42;96529.98;1804538;79;21523;-48
2021/01/04 02:34:20;;;;;;;33.65;22.48;;;;;;;2.26;69.59;96543.41;1806471;78;21121;-48
2021/01/04 02:36:51;;;;;;;37.30;24.05;;;;;;;2.19;69.54;96543.63;1801548;79;21102;-48
2021/01/04 02:39:44;;;;;;;33.35;20.55;;;;;;;2.14;69.81;96562.17;1800996;78;21532;-48
2021/01/04 02:42:28;;;;;;;38.80;23.00;;;;;;;2.10;69.72;96559.78;1730162;82;21372;-47
2021/01/04 02:44:56;;;;;;;31.45;18.95;;;;;;;1.99;70.37;96561.45;1737639;82;21233;-46
2021/01/04 02:47:45;;;;;;;33.33;20.88;;;;;;;1.90;70.62;96566.47;1741653;80;21075;-47
2021/01/04 02:50:24;;;;;;;32.45;22.05;;;;;;;1.58;71.19;96581.25;1745694;81;25839;-48
2021/01/04 02:53:35;;;;;;;35.10;20.80;;;;;;;1.35;72.06;96576.07;1736492;81;21802;-48
2021/01/04 02:56:33;;;;;;;38.20;22.20;;;;;;;1.25;72.63;96583.22;1737062;81;21210;-47
2021/01/04 02:59:38;;;;;;;34.10;21.35;;;;;;;1.17;72.96;96583.91;1744022;81;21536;-47
2021/01/04 03:02:10;;;;;;;35.55;22.82;;;;;;;1.16;73.27;96599.70;1746659;81;21137;-47
2021/01/04 03:04:38;;;;;;;36.10;25.80;;;;;;;1.06;73.23;96583.01;1718201;81;21136;-47
2021/01/04 03:07:13;;;;;;;41.10;25.32;;;;;;;1.12;73.36;96590.48;1738671;81;21159;-48
2021/01/04 03:09:47;;;;;;;34.13;22.05;;;;;;;1.21;73.49;96582.48;1742263;81;21191;-48
2021/01/04 03:12:26;;;;;;;31.20;20.35;;;;;;;1.34;73.60;96572.69;1750441;80;21181;-48
2021/01/04 03:15:14;;;;;;;29.57;20.50;;;;;;;1.53;73.46;96577.16;1741819;81;21219;-48
2021/01/04 03:18:05;;;;;;;27.60;17.40;;;;;;;1.48;72.66;96563.28;1728411;82;21580;-48
2021/01/04 03:20:33;;;;;;;25.40;16.52;;;;;;;1.33;72.86;96570.19;1746051;81;21154;-48
2021/01/04 03:23:00;;;;;;;25.60;16.70;;;;;;;1.25;73.09;96572.99;1744835;80;22470;-47
2021/01/04 03:25:37;;;;;;;26.25;15.10;;;;;;;1.31;72.91;96566.40;1745173;80;21567;-47
2021/01/04 03:28:06;;;;;;;28.83;17.48;;;;;;;1.31;73.37;96557.45;1746110;80;21071;-48
2021/01/04 03:30:33;;;;;;;18.25;12.90;;;;;;;1.35;73.86;96551.78;1717365;80;21061;-47
2021/01/04 03:33:01;;;;;;;20.50;12.90;;;;;;;1.46;74.25;96544.58;1739178;80;21072;-47
2021/01/04 03:35:28;;;;;;;20.30;12.97;;;;;;;1.43;73.86;96539.57;1743869;81;21387;-47
2021/01/04 03:37:56;;;;;;;17.48;11.78;;;;;;;1.30;74.13;96550.69;1738514;81;21149;-47
2021/01/04 03:40:24;;;;;;;24.70;15.10;;;;;;;1.15;75.06;96559.72;1740485;80;21136;-46
2021/01/04 03:42:52;;;;;;;27.07;16.17;;;;;;;1.06;75.15;96563.84;1748747;81;21086;-48
2021/01/04 03:45:20;;;;;;;25.75;17.00;;;;;;;1.09;74.96;96550.52;1729898;82;21064;-47
2021/01/04 03:47:48;;;;;;;21.10;14.75;;;;;;;1.17;75.11;96557.08;1746899;81;21215;-47
2021/01/04 03:50:18;;;;;;;22.22;14.90;;;;;;;1.23;75.42;96552.62;1712484;81;21196;-47
2021/01/04 03:52:45;;;;;;;26.73;16.70;;;;;;;1.36;75.27;96545.80;1728738;83;21595;-47
2021/01/04 03:55:15;;;;;;;36.05;20.65;;;;;;;1.51;74.77;96536.75;1746326;81;21103;-48
2021/01/04 03:57:44;;;;;;;49.80;23.87;;;;;;;1.62;74.41;96547.44;1753600;81;21519;-46
2021/01/04 04:00:15;;;;;;;32.15;18.80;;;;;;;1.74;74.23;96552.56;1732397;81;21501;-47
2021/01/04 04:02:43;;;;;;;69.97;30.10;;;;;;;1.81;73.51;96556.13;1720635;81;21579;-47
2021/01/04 04:05:13;;;;;;;77.40;31.62;;;;;;;1.79;73.34;96550.24;1718419;82;21085;-47
2021/01/04 04:07:41;;;;;;;34.98;18.70;;;;;;;1.77;73.68;96542.22;1743163;82;21072;-48
2021/01/04 04:10:10;;;;;;;26.57;15.25;;;;;;;1.82;73.44;96537.77;1723988;82;21143;-47
2021/01/04 04:12:38;;;;;;;29.82;17.37;;;;;;;1.88;73.97;96534.98;1721179;82;21219;-47
2021/01/04 04:15:09;;;;;;;27.20;15.85;;;;;;;1.96;73.89;96536.82;1730498;82;21167;-48
2021/01/04 04:17:36;;;;;;;26.60;16.87;;;;;;;2.05;73.27;96541.20;1720648;82;21108;-47
2021/01/04 04:20:12;;;;;;;25.87;15.47;;;;;;;2.08;72.67;96541.92;1743952;82;21068;-48
2021/01/04 04:22:39;;;;;;;25.43;15.30;;;;;;;2.07;72.48;96544.53;1721087;82;21138;-46
2021/01/04 04:25:09;;;;;;;;;;;;;;;1.75;72.46;96551.22;1723222;83;21342;-47
2021/01/04 04:27:37;;;;;;;25.35;16.52;;;;;;;1.57;73.11;96557.83;1729090;82;20248;-47
2021/01/04 04:30:08;;;;;;;17.52;10.75;;;;;;;1.45;73.54;96554.44;1739004;82;21480;-47
2021/01/04 04:32:36;;;;;;;27.45;16.55;;;;;;;1.43;74.72;96547.24;1724171;82;21215;-47
2021/01/04 04:35:07;;;;;;;20.70;10.58;;;;;;;1.53;74.50;96552.45;1735556;81;21663;-46
2021/01/04 04:37:34;;;;;;;20.43;11.83;;;;;;;1.68;75.04;96554.05;1720918;82;21497;-47
2021/01/04 04:40:04;;;;;;;268.77;151.18;;;;;;;1.76;74.76;96552.91;1720569;82;21068;-47
2021/01/04 04:42:32;;;;;;;91.55;58.48;;;;;;;1.96;75.52;96548.33;1722644;82;21481;-47
2021/01/04 04:45:02;;;;;;;102.95;57.17;;;;;;;2.23;74.95;96569.13;1719719;82;21183;-47
2021/01/04 04:48:04;;;;;;;33.20;19.65;;;;;;;2.41;73.98;96568.88;1745487;80;21702;-50
2021/01/04 04:50:59;;;;;;;22.07;12.98;;;;;;;2.49;73.49;96559.17;1723989;81;21214;-50
2021/01/04 04:53:44;;;;;;;19.12;12.20;;;;;;;2.55;73.09;96557.20;1740766;81;21142;-50
2021/01/04 04:56:54;;;;;;;21.73;13.20;;;;;;;2.55;72.82;96562.32;1717456;81;21089;-50
2021/01/04 04:59:47;;;;;;;23.57;13.68;;;;;;;2.51;72.08;96554.35;1750020;81;21141;-50
2021/01/04 05:02:41;;;;;;;21.85;13.83;;;;;;;2.50;72.10;96554.41;1741700;81;21407;-50
2021/01/04 05:05:26;;;;;;;21.70;13.45;;;;;;;2.53;72.21;96555.16;1732875;82;21557;-49
2021/01/04 05:08:23;;;;;;;20.27;12.85;;;;;;;2.58;72.40;96558.36;1747922;81;21509;-50
2021/01/04 05:10:51;;;;;;;22.25;13.18;;;;;;;2.68;72.73;96559.27;1728054;81;21535;-51
2021/01/04 05:13:24;;;;;;;23.83;14.10;;;;;;;2.82;72.78;96570.27;1747878;81;21127;-50
2021/01/04 05:16:10;;;;;;;19.48;12.40;;;;;;;2.84;72.50;96563.34;1742410;81;21055;-50
2021/01/04 05:18:58;;;;;;;27.58;14.98;;;;;;;2.89;72.88;96556.30;1729685;80;21457;-49
2021/01/04 05:22:06;;;;;;;21.48;12.85;;;;;;;3.00;72.81;96564.84;1747193;81;26756;-51
2021/01/04 05:24:51;;;;;;;20.97;14.55;;;;;;;3.12;72.00;96565.19;1746483;81;21088;-50
2021/01/04 05:27:53;;;;;;;21.33;15.13;;;;;;;3.12;69.58;96557.48;1880749;76;25661;-51
2021/01/04 05:30:53;;;;;;;25.75;15.63;;;;;;;2.67;69.88;96555.05;1816941;77;21173;-51
2021/01/04 05:33:44;;;;;;;23.90;14.85;;;;;;;2.41;70.86;96553.51;1840818;77;22183;-50
2021/01/04 05:36:37;;;;;;;19.23;12.43;;;;;;;2.38;71.19;96560.84;1824933;77;21538;-51
2021/01/04 05:39:13;;;;;;;22.13;14.30;;;;;;;2.42;72.06;96567.53;1852295;77;21105;-50
2021/01/04 05:41:59;;;;;;;24.45;13.93;;;;;;;2.46;71.64;96572.09;1849554;77;21132;-50
2021/01/04 05:44:49;;;;;;;17.77;11.05;;;;;;;2.47;71.65;96569.92;1801394;77;21080;-49
2021/01/04 05:47:22;;;;;;;28.73;15.88;;;;;;;2.56;72.99;96564.42;1854576;77;21197;-50
2021/01/04 05:50:19;;;;;;;22.87;15.25;;;;;;;2.71;71.70;96576.66;1792532;77;21142;-51
2021/01/04 05:52:48;;;;;;;28.83;16.52;;;;;;;2.81;71.09;96576.27;1848748;77;21073;-51
2021/01/04 05:55:15;;;;;;;22.55;15.00;;;;;;;2.89;70.68;96567.83;1843414;77;21215;-51
2021/01/04 05:57:48;;;;;;;20.95;13.43;;;;;;;2.97;71.09;96563.69;1826461;77;21719;-50
2021/01/04 06:00:34;;;;;;;18.70;12.30;;;;;;;3.06;71.37;96571.84;1813446;77;21193;-50
2021/01/04 06:03:19;;;;;;;23.02;14.47;;;;;;;3.18;71.03;96570.95;1788165;78;21128;-51
2021/01/04 06:05:48;;;;;;;24.95;15.23;;;;;;;3.28;70.61;96568.38;1776074;80;21140;-50
2021/01/04 06:08:26;;;;;;;25.48;16.23;;;;;;;3.35;69.94;96576.65;1760360;80;21186;-52
2021/01/04 06:11:11;;;;;;;23.22;12.63;;;;;;;3.30;70.00;96581.97;1777493;78;21158;-51
2021/01/04 06:13:41;;;;;;;21.00;14.38;;;;;;;3.37;70.84;96578.27;1782683;78;23627;-51
2021/01/04 06:16:16;;;;;;;26.40;16.85;;;;;;;3.48;70.60;96590.16;1780827;80;21195;-50
2021/01/04 06:18:59;;;;;;;25.70;16.37;;;;;;;3.65;69.87;96594.59;1858997;76;26724;-51
2021/01/04 06:21:45;;;;;;;45.45;31.50;;;;;;;3.63;69.62;96598.94;1851682;77;21053;-50
2021/01/04 06:24:29;;;;;;;29.72;18.70;;;;;;;3.63;69.21;96596.83;1841324;77;21050;-51
2021/01/04 06:27:12;;;;;;;16.35;11.35;;;;;;;3.50;69.41;96599.08;1848605;77;21128;-50
2021/01/04 06:29:46;;;;;;;15.15;11.22;;;;;;;3.44;70.54;96597.62;1833169;77;21076;-51
2021/01/04 06:32:32;;;;;;;18.42;11.95;;;;;;;3.53;71.07;96601.98;1846548;77;21167;-51
2021/01/04 06:35:05;;;;;;;30.57;18.85;;;;;;;3.67;71.15;96602.23;1851417;77;21053;-51
2021/01/04 06:37:32;;;;;;;44.88;26.73;;;;;;;3.87;70.56;96600.09;1843740;77;22222;-49
2021/01/04 06:40:33;;;;;;;33.08;21.73;;;;;;;3.91;68.45;96609.30;1849750;77;21061;-52
2021/01/04 06:43:31;;;;;;;26.37;17.82;;;;;;;3.82;67.55;96611.83;1844495;77;21119;-50
2021/01/04 06:46:10;;;;;;;28.65;18.15;;;;;;;3.55;67.79;96614.28;1846112;77;22489;-50
2021/01/04 06:48:44;;;;;;;32.38;19.73;;;;;;;3.44;68.58;96611.73;1835963;77;27074;-50
2021/01/04 06:52:08;;;;;;;34.35;21.25;;;;;;;3.39;68.94;96605.95;1810593;77;21369;-50
2021/01/04 06:55:00;;;;;;;35.03;22.30;;;;;;;3.39;69.36;96611.09;1841253;77;21109;-50
2021/01/04 06:57:56;;;;;;;31.00;21.87;;;;;;;3.50;69.24;96608.05;1817041;78;21051;-50
2021/01/04 07:00:46;;;;;;;21.68;14.75;;;;;;;3.58;69.01;96609.84;1812190;77;21121;-49
2021/01/04 07:03:45;;;;;;;21.80;14.43;;;;;;;3.66;67.92;96614.67;1808553;78;21144;-50
2021/01/04 07:06:46;;;;;;;25.02;15.98;;;;;;;3.66;67.46;96610.36;1815488;77;21200;-49
2021/01/04 07:09:42;;;;;;;26.57;14.85;;;;;;;3.62;67.53;96594.73;1713857;81;21190;-49
2021/01/04 07:12:27;;;;;;;29.63;17.27;;;;;;;3.56;67.72;96592.41;1713327;82;21600;-52
2021/01/04 07:15:24;;;;;;;37.58;23.42;;;;;;;3.58;67.77;96581.63;1781139;77;21546;-51
2021/01/04 07:18:40;;;;;;;38.95;23.75;;;;;;;3.63;67.37;96572.45;1823293;77;21073;-50
2021/01/04 07:21:30;;;;;;;81.53;49.65;;;;;;;3.65;67.19;96564.23;1829030;77;21184;-47
2021/01/04 07:24:06;;;;;;;42.43;27.20;;;;;;;3.74;67.21;96574.11;1827384;77;21102;-46
2021/01/04 07:26:48;;;;;;;37.42;22.55;;;;;;;3.77;67.11;96579.58;1762055;78;21228;-48
2021/01/04 07:29:39;;;;;;;31.85;21.65;;;;;;;3.85;67.01;96579.61;1830843;76;21100;-48
2021/01/04 07:32:24;;;;;;;39.53;23.15;;;;;;;3.99;67.00;96574.31;1819730;77;21172;-47
2021/01/04 07:35:00;;;;;;;37.08;21.85;;;;;;;4.17;66.69;96570.91;1814629;78;21352;-47
2021/01/04 07:38:08;;;;;;;33.30;21.55;;;;;;;4.34;66.42;96560.33;1793872;79;21145;-47
2021/01/04 07:40:58;;;;;;;32.40;20.77;;;;;;;4.50;66.33;96555.31;1772727;80;21121;-48
2021/01/04 07:43:49;;;;;;;34.13;22.67;;;;;;;4.65;65.97;96561.00;1794085;80;21153;-47
2021/01/04 07:46:47;;;;;;;66.65;43.98;;;;;;;4.72;65.59;96570.55;1794051;80;21093;-47
2021/01/04 07:49:44;;;;;;;60.35;33.65;;;;;;;4.58;65.48;96561.75;1794047;80;21202;-47
2021/01/04 07:52:53;;;;;;;52.90;34.08;;;;;;;4.22;66.06;96572.81;1854522;77;21060;-47
2021/01/04 07:55:58;;;;;;;46.88;30.48;;;;;;;4.01;67.01;96576.36;1846199;75;21078;-47
2021/01/04 07:58:40;;;;;;;42.78;28.12;;;;;;;4.03;67.39;96580.53;1826504;78;21137;-47
2021/01/04 08:01:31;;;;;;;45.85;27.85;;;;;;;4.09;67.22;96583.27;1822736;78;21061;-48
2021/01/04 08:04:30;;;;;;;42.60;26.93;;;;;;;3.96;67.42;96583.44;1850470;77;21330;-48
2021/01/04 08:07:26;;;;;;;40.17;25.92;;;;;;;3.94;67.54;96593.77;1859692;77;21069;-47
2021/01/04 08:10:05;;;;;;;42.67;26.00;;;;;;;3.90;67.69;96597.81;1863831;76;21572;-48
2021/01/04 08:13:19;;;;;;;47.40;28.73;;;;;;;3.93;67.63;96600.25;1863510;77;21159;-48
2021/01/04 08:15:51;;;;;;;49.05;30.10;;;;;;;3.99;67.40;96597.42;1833079;76;21109;-47
2021/01/04 08:18:19;;;;;;;56.42;35.55;;;;;;;4.07;67.08;96603.52;1825781;78;21163;-47
2021/01/04 08:21:13;;;;;;;56.40;34.23;;;;;;;4.13;66.70;96604.07;1828178;77;21572;-47
2021/01/04 08:24:07;;;;;;;51.58;32.13;;;;;;;4.14;66.56;96601.05;1822444;78;21056;-47
2021/01/04 08:27:12;;;;;;;54.03;33.38;;;;;;;4.13;66.50;96611.78;1789277;80;21153;-47
2021/01/04 08:30:19;;;;;;;61.48;37.38;;;;;;;4.10;66.59;96605.48;1804076;78;21065;-47
2021/01/04 08:33:26;;;;;;;63.28;37.33;;;;;;;4.10;66.46;96608.52;1826464;78;23545;-46
2021/01/04 08:35:54;;;;;;;54.53;34.18;;;;;;;4.09;66.53;96611.52;1840744;77;21179;-46
2021/01/04 08:38:30;;;;;;;55.92;35.35;;;;;;;4.09;66.61;96607.66;1863763;77;21045;-46
2021/01/04 08:41:21;;;;;;;52.13;34.60;;;;;;;4.11;66.63;96607.17;1838350;77;21513;-48
2021/01/04 08:43:52;;;;;;;55.45;34.75;;;;;;;4.15;66.48;96607.40;1812567;78;21057;-48
2021/01/04 08:46:30;;;;;;;59.15;36.58;;;;;;;4.20;66.48;96611.05;1817539;78;21479;-47
2021/01/04 08:49:03;;;;;;;56.70;35.28;;;;;;;4.25;66.36;96597.55;1826444;78;21090;-47
2021/01/04 08:51:41;;;;;;;59.58;34.92;;;;;;;4.29;66.21;96598.23;1788549;80;21088;-48
2021/01/04 08:54:29;;;;;;;54.77;34.83;;;;;;;4.30;66.11;96601.20;1787306;78;21580;-48
2021/01/04 08:57:18;;;;;;;55.63;33.53;;;;;;;4.21;66.02;96592.15;1790040;80;21109;-48
2021/01/04 09:00:05;;;;;;;53.02;31.05;;;;;;;4.12;66.42;96586.98;1758831;81;21196;-47
2021/01/04 09:02:37;;;;;;;47.53;30.12;;;;;;;4.13;66.55;96584.81;1729241;81;21115;-47
2021/01/04 09:05:07;;;;;;;43.55;27.55;;;;;;;4.18;66.66;96588.00;1760352;80;21063;-46
2021/01/04 09:07:47;;;;;;;42.73;28.67;;;;;;;4.27;66.62;96584.64;1801554;79;21121;-47
2021/01/04 09:10:42;;;;;;;46.28;29.55;;;;;;;4.36;66.56;96581.66;1813257;78;21112;-47
2021/01/04 09:13:31;;;;;;;53.87;34.23;;;;;;;4.38;66.50;96581.13;1812324;79;21147;-46
2021/01/04 09:16:29;;;;;;;63.17;38.90;;;;;;;4.40;66.95;96581.42;1809311;79;21065;-47
2021/01/04 09:19:23;;;;;;;66.02;39.78;;;;;;;4.45;66.96;96583.78;1749048;81;21131;-48
2021/01/04 09:22:08;;;;;;;60.60;36.90;;;;;;;4.50;66.95;96585.69;1845061;76;26568;-47
2021/01/04 09:24:39;;;;;;;59.08;38.38;;;;;;;4.45;66.92;96585.53;1808550;79;21074;-47
2021/01/04 09:27:35;;;;;;;62.00;38.60;;;;;;;4.40;67.04;96585.73;1808624;79;21247;-47
2021/01/04 09:30:09;;;;;;;53.35;34.73;;;;;;;4.33;67.54;96580.05;1809397;78;21551;-46
2021/01/04 09:32:42;;;;;;;59.80;40.85;;;;;;;4.47;67.68;96585.00;1841393;78;21059;-47
2021/01/04 09:35:20;;;;;;;54.83;34.05;;;;;;;4.57;67.69;96581.95;1813973;78;21484;-47
2021/01/04 09:37:49;;;;;;;51.73;33.58;;;;;;;4.65;67.44;96583.31;1813879;78;21087;-47
2021/01/04 09:40:19;;;;;;;49.05;31.65;;;;;;;4.67;67.31;96585.35;1839868;77;21329;-46
2021/01/04 09:42:46;;;;;;;44.03;31.17;;;;;;;4.67;67.16;96580.21;1840278;78;21003;-46
2021/01/04 09:45:18;;;;;;;44.73;30.77;;;;;;;4.64;66.96;96576.50;1769931;79;21105;-48
2021/01/04 09:47:54;;;;;;;43.63;29.72;;;;;;;4.61;66.93;96574.92;1762211;80;21476;-48
2021/01/04 09:50:37;;;;;;;36.63;26.57;;;;;;;4.64;66.98;96571.36;1752502;80;21151;-48
2021/01/04 09:53:26;;;;;;;39.50;25.55;;;;;;;4.69;67.01;96560.44;1755334;80;21747;-47
2021/01/04 09:56:00;;;;;;;;;;;;;;;4.75;66.87;96558.83;1747906;80;21609;-47
2021/01/04 09:58:27;;;;;;;42.23;26.82;;;;;;;4.78;66.57;96565.12;1748540;81;20226;-48
2021/01/04 10:01:11;;;;;;;49.88;31.35;;;;;;;4.80;66.59;96564.59;1750368;82;21148;-47
2021/01/04 10:03:39;;;;;;;50.17;33.70;;;;;;;4.87;66.39;96557.41;1750734;82;21480;-48
2021/01/04 10:06:09;;;;;;;57.27;37.03;;;;;;;4.93;66.26;96548.97;1738107;82;21497;-47
2021/01/04 10:08:37;;;;;;;66.40;39.83;;;;;;;4.98;66.28;96539.29;1722786;81;21191;-47
2021/01/04 10:11:08;;;;;;;64.58;40.12;;;;;;;5.07;66.15;96535.89;1717046;82;21095;-47
2021/01/04 10:13:38;;;;;;;60.05;38.48;;;;;;;5.16;66.02;96534.98;1724596;82;21155;-48
2021/01/04 10:16:15;;;;;;;58.63;37.10;;;;;;;5.28;65.87;96532.67;1750692;80;21076;-47
2021/01/04 10:19:00;;;;;;;61.58;40.08;;;;;;;5.44;65.66;96529.70;1734469;82;21600;-47
2021/01/04 10:21:48;;;;;;;64.22;41.55;;;;;;;5.61;65.43;96535.30;1749900;80;21263;-48
2021/01/04 10:24:20;;;;;;;56.75;35.85;;;;;;;5.79;64.96;96534.80;1737376;80;21068;-48
2021/01/04 10:26:50;;;;;;;48.55;32.28;;;;;;;5.93;64.55;96526.34;1750319;80;21493;-47
2021/01/04 10:29:24;;;;;;;48.70;31.85;;;;;;;6.04;64.25;96528.39;1706283;82;21516;-48
2021/01/04 10:32:06;;;;;;;48.38;32.40;;;;;;;6.15;64.10;96517.48;1750839;81;21160;-48
2021/01/04 10:34:43;;;;;;;53.33;33.67;;;;;;;6.24;64.02;96517.83;1725516;82;21568;-48
2021/01/04 10:37:29;;;;;;;53.30;34.65;;;;;;;6.34;63.81;96511.72;1750677;81;21135;-48
2021/01/04 10:40:01;;;;;;;54.35;34.73;;;;;;;6.43;63.61;96503.48;1719346;82;21548;-47
2021/01/04 10:42:29;;;;;;;49.48;34.43;;;;;;;6.47;63.38;96501.56;1734562;82;21086;-47
2021/01/04 10:45:05;;;;;;;52.23;36.17;;;;;;;6.49;63.30;96497.15;1735992;82;21454;-47
2021/01/04 10:47:58;;;;;;;54.58;36.00;;;;;;;6.50;63.26;96498.00;1744241;82;21139;-47
2021/01/04 10:50:38;;;;;;;49.53;34.45;;;;;;;6.56;63.09;96491.19;1729520;82;21056;-47
2021/01/04 10:53:09;;;;;;;49.77;35.03;;;;;;;6.66;62.90;96497.95;1739930;82;21067;-47
2021/01/04 10:55:57;;;;;;;58.02;36.75;;;;;;;6.74;62.62;96509.52;1747637;80;21044;-46
2021/01/04 10:58:29;;;;;;;53.17;33.65;;;;;;;6.86;61.95;96516.16;1704352;83;21209;-48
2021/01/04 11:01:10;;;;;;;51.63;35.92;;;;;;;6.88;62.12;96511.77;1752479;81;21628;-49
2021/01/04 11:03:40;;;;;;;56.60;38.50;;;;;;;6.95;62.27;96503.57;1702104;82;21161;-48
2021/01/04 11:06:24;;;;;;;54.80;36.33;;;;;;;7.03;62.25;96500.56;1748319;82;21624;-48
2021/01/04 11:08:52;;;;;;;52.10;33.88;;;;;;;7.12;62.11;96489.72;1731683;82;21589;-49
2021/01/04 11:11:37;;;;;;;49.35;33.40;;;;;;;7.26;61.96;96486.78;1733701;82;21487;-47
2021/01/04 11:14:20;;;;;;;51.45;33.08;;;;;;;7.39;61.79;96479.16;1732405;82;21132;-48
2021/01/04 11:16:55;;;;;;;47.65;32.25;;;;;;;7.62;61.63;96476.48;1739806;82;21611;-48
2021/01/04 11:19:30;;;;;;;47.10;32.05;;;;;;;7.89;61.04;96470.92;1725140;82;21125;-49
2021/01/04 11:22:27;;;;;;;46.48;30.30;;;;;;;8.09;60.43;96468.83;1747992;81;21210;-49
2021/01/04 11:24:58;;;;;;;40.23;28.17;;;;;;;8.24;60.04;96471.77;1758173;81;21392;-48
2021/01/04 11:27:25;;;;;;;39.30;26.65;;;;;;;8.38;59.87;96477.81;1744168;81;21083;-48
2021/01/04 11:29:53;;;;;;;44.10;31.07;;;;;;;8.35;60.10;96470.25;1731593;81;21119;-48
2021/01/04 11:32:23;;;;;;;41.70;29.80;;;;;;;8.41;60.23;96450.47;1732096;81;21154;-48
2021/01/04 11:34:59;;;;;;;43.70;30.77;;;;;;;8.50;60.03;96451.19;1736595;81;21974;-48
2021/01/04 11:37:25;;;;;;;43.68;30.30;;;;;;;8.50;59.81;96453.77;1751422;81;21207;-48
2021/01/04 11:39:53;;;;;;;43.00;29.32;;;;;;;8.41;59.96;96453.88;1729425;81;21124;-47
2021/01/04 11:42:21;;;;;;;39.05;28.55;;;;;;;8.33;60.16;96454.83;1736535;81;21553;-48
2021/01/04 11:44:49;;;;;;;41.80;29.60;;;;;;;8.28;60.26;96458.17;1737433;81;21067;-48
2021/01/04 11:47:18;;;;;;;39.40;27.40;;;;;;;8.27;60.25;96461.67;1737489;81;21168;-48
2021/01/04 11:49:46;;;;;;;46.53;29.10;;;;;;;8.28;60.25;96456.88;1735301;81;22278;-48
2021/01/04 11:52:13;;;;;;;41.15;28.45;;;;;;;8.27;60.27;96457.80;1757626;81;21126;-47
2021/01/04 11:54:42;;;;;;;43.87;27.98;;;;;;;8.28;60.32;96468.05;1759509;80;21223;-47
2021/01/04 11:57:11;;;;;;;40.70;27.32;;;;;;;8.26;60.41;96462.15;1753161;81;21084;-49
2021/01/04 11:59:38;;;;;;;38.70;26.12;;;;;;;8.22;60.61;96448.22;1752779;81;21056;-47
2021/01/04 12:02:06;;;;;;;37.83;25.92;;;;;;;8.14;60.73;96444.84;1759592;81;21493;-47
2021/01/04 12:04:34;;;;;;;43.17;27.80;;;;;;;8.04;61.01;96449.77;1756134;80;21587;-47
2021/01/04 12:07:01;;;;;;;37.03;26.62;;;;;;;7.95;61.46;96446.45;1755346;80;21155;-47
2021/01/04 12:09:29;;;;;;;43.63;29.37;;;;;;;7.86;61.82;96443.98;1759637;81;21068;-47
2021/01/04 12:11:57;;;;;;;39.38;27.62;;;;;;;7.84;62.01;96443.23;1757439;80;21052;-48
2021/01/04 12:14:25;;;;;;;41.75;27.87;;;;;;;7.84;62.18;96441.94;1738364;81;21540;-48
2021/01/04 12:16:53;;;;;;;40.75;29.27;;;;;;;7.84;62.37;96440.64;1740501;81;21164;-47
2021/01/04 12:19:21;;;;;;;41.90;28.77;;;;;;;7.84;62.46;96443.23;1754722;81;21172;-47
2021/01/04 12:21:48;;;;;;;44.50;28.50;;;;;;;7.84;62.43;96443.70;1735423;81;21056;-47
2021/01/04 12:24:15;;;;;;;46.00;29.32;;;;;;;7.83;62.45;96445.46;1727958;81;21757;-49
2021/01/04 12:26:48;;;;;;;48.87;30.27;;;;;;;7.82;62.63;96445.08;1732626;81;21400;-48
2021/01/04 12:29:17;;;;;;;44.83;28.98;;;;;;;7.80;62.71;96445.65;1729404;81;21505;-46
2021/01/04 12:31:45;;;;;;;36.85;26.37;;;;;;;7.78;62.83;96446.66;1743823;81;26940;-47